sensor_id;sensor_type;location;lat;lon;timestamp;pressure;altitude;pressure_sealevel;temperature;humidity
68476;BME280;55464;48.266;14.188;2023-04-27T00:01:54;97873.69;;;8.01;62.45
68476;BME280;55464;48.266;14.188;2023-04-27T00:04:19;97876.91;;;7.94;63.37
68476;BME280;55464;48.266;14.188;2023-04-27T00:06:45;97876.91;;;7.94;63.16
68476;BME280;55464;48.266;14.188;2023-04-27T00:09:11;97874.34;;;7.98;62.49
68476;BME280;55464;48.266;14.188;2023-04-27T00:11:36;97879.03;;;7.97;62.95
68476;BME280;55464;48.266;14.188;2023-04-27T00:14:01;97854.66;;;7.87;63.03
68476;BME280;55464;48.266;14.188;2023-04-27T00:16:27;97873.84;;;8.04;62.97
68476;BME280;55464;48.266;14.188;2023-04-27T00:18:53;97873.03;;;8.04;63.23
68476;BME280;55464;48.266;14.188;2023-04-27T00:21:18;97869.50;;;7.94;64.11
68476;BME280;55464;48.266;14.188;2023-04-27T00:23:44;97868.88;;;7.89;64.58
68476;BME280;55464;48.266;14.188;2023-04-27T00:26:09;97863.03;;;7.90;65.19
68476;BME280;55464;48.266;14.188;2023-04-27T00:28:35;97865.00;;;7.90;65.31
68476;BME280;55464;48.266;14.188;2023-04-27T00:31:00;97867.25;;;7.88;65.87
68476;BME280;55464;48.266;14.188;2023-04-27T00:33:28;97864.19;;;7.89;65.70
68476;BME280;55464;48.266;14.188;2023-04-27T00:35:53;97866.63;;;7.91;65.58
68476;BME280;55464;48.266;14.188;2023-04-27T00:38:19;97862.88;;;7.87;65.55
68476;BME280;55464;48.266;14.188;2023-04-27T00:40:44;97852.22;;;7.85;64.75
68476;BME280;55464;48.266;14.188;2023-04-27T00:43:09;97849.84;;;7.84;65.21
68476;BME280;55464;48.266;14.188;2023-04-27T00:45:41;97853.84;;;7.86;65.28
68476;BME280;55464;48.266;14.188;2023-04-27T00:48:10;97858.84;;;7.93;65.34
68476;BME280;55464;48.266;14.188;2023-04-27T00:50:36;97852.06;;;7.90;64.70
68476;BME280;55464;48.266;14.188;2023-04-27T00:53:04;97846.94;;;7.89;64.04
68476;BME280;55464;48.266;14.188;2023-04-27T00:55:29;97862.25;;;7.90;64.74
68476;BME280;55464;48.266;14.188;2023-04-27T00:57:55;97850.97;;;7.83;65.21
68476;BME280;55464;48.266;14.188;2023-04-27T01:00:20;97858.06;;;7.92;64.36
68476;BME280;55464;48.266;14.188;2023-04-27T01:02:46;97858.38;;;7.91;64.74
68476;BME280;55464;48.266;14.188;2023-04-27T01:05:13;97861.78;;;7.88;64.75
68476;BME280;55464;48.266;14.188;2023-04-27T01:07:39;97866.94;;;7.89;64.66
68476;BME280;55464;48.266;14.188;2023-04-27T01:10:06;97859.66;;;7.93;64.82
68476;BME280;55464;48.266;14.188;2023-04-27T01:12:32;97858.22;;;7.96;65.48
68476;BME280;55464;48.266;14.188;2023-04-27T01:14:57;97850.94;;;7.91;65.69
68476;BME280;55464;48.266;14.188;2023-04-27T01:17:23;97860.28;;;7.99;64.93
68476;BME280;55464;48.266;14.188;2023-04-27T01:19:48;97851.09;;;7.95;63.96
68476;BME280;55464;48.266;14.188;2023-04-27T01:22:16;97862.38;;;8.02;63.74
68476;BME280;55464;48.266;14.188;2023-04-27T01:24:41;97865.47;;;8.01;63.11
68476;BME280;55464;48.266;14.188;2023-04-27T01:27:07;97869.03;;;8.01;63.38
68476;BME280;55464;48.266;14.188;2023-04-27T01:29:32;97865.63;;;7.95;62.97
68476;BME280;55464;48.266;14.188;2023-04-27T01:31:58;97868.34;;;8.04;63.24
68476;BME280;55464;48.266;14.188;2023-04-27T01:34:23;97879.19;;;8.01;64.01
68476;BME280;55464;48.266;14.188;2023-04-27T01:36:48;97873.84;;;7.95;64.13
68476;BME280;55464;48.266;14.188;2023-04-27T01:39:14;97884.84;;;7.95;64.44
68476;BME280;55464;48.266;14.188;2023-04-27T01:41:40;97877.44;;;7.96;64.36
68476;BME280;55464;48.266;14.188;2023-04-27T01:44:06;97876.59;;;7.87;64.80
68476;BME280;55464;48.266;14.188;2023-04-27T01:46:31;97876.44;;;7.83;65.27
68476;BME280;55464;48.266;14.188;2023-04-27T01:48:57;97863.22;;;7.76;65.09
68476;BME280;55464;48.266;14.188;2023-04-27T01:51:22;97875.19;;;7.81;64.82
68476;BME280;55464;48.266;14.188;2023-04-27T01:53:48;97877.44;;;7.79;64.96
68476;BME280;55464;48.266;14.188;2023-04-27T01:56:13;97878.41;;;7.83;65.75
68476;BME280;55464;48.266;14.188;2023-04-27T01:58:38;97878.56;;;7.78;65.63
68476;BME280;55464;48.266;14.188;2023-04-27T02:01:04;97888.59;;;7.73;65.61
68476;BME280;55464;48.266;14.188;2023-04-27T02:03:29;97886.63;;;7.74;65.91
68476;BME280;55464;48.266;14.188;2023-04-27T02:05:55;97880.66;;;7.72;65.88
68476;BME280;55464;48.266;14.188;2023-04-27T02:08:20;97884.84;;;7.78;65.67
68476;BME280;55464;48.266;14.188;2023-04-27T02:10:46;97885.84;;;7.73;65.47
68476;BME280;55464;48.266;14.188;2023-04-27T02:13:11;97887.59;;;7.69;65.81
68476;BME280;55464;48.266;14.188;2023-04-27T02:15:37;97882.47;;;7.59;65.40
68476;BME280;55464;48.266;14.188;2023-04-27T02:18:02;97889.84;;;7.58;65.15
68476;BME280;55464;48.266;14.188;2023-04-27T02:20:29;97890.00;;;7.62;64.93
68476;BME280;55464;48.266;14.188;2023-04-27T02:22:55;97890.69;;;7.59;64.88
68476;BME280;55464;48.266;14.188;2023-04-27T02:25:20;97896.81;;;7.65;64.56
68476;BME280;55464;48.266;14.188;2023-04-27T02:27:46;97888.09;;;7.63;64.32
68476;BME280;55464;48.266;14.188;2023-04-27T02:30:12;97893.25;;;7.64;64.33
68476;BME280;55464;48.266;14.188;2023-04-27T02:32:37;97887.91;;;7.68;63.84
68476;BME280;55464;48.266;14.188;2023-04-27T02:35:04;97889.22;;;7.70;63.79
68476;BME280;55464;48.266;14.188;2023-04-27T02:37:29;97888.91;;;7.72;64.07
68476;BME280;55464;48.266;14.188;2023-04-27T02:39:55;97895.34;;;7.76;63.69
68476;BME280;55464;48.266;14.188;2023-04-27T02:42:20;97898.09;;;7.76;63.22
68476;BME280;55464;48.266;14.188;2023-04-27T02:44:46;97902.13;;;7.79;62.78
68476;BME280;55464;48.266;14.188;2023-04-27T02:47:12;97897.44;;;7.79;62.86
68476;BME280;55464;48.266;14.188;2023-04-27T02:49:38;97895.19;;;7.81;62.14
68476;BME280;55464;48.266;14.188;2023-04-27T02:52:04;97895.66;;;7.83;61.42
68476;BME280;55464;48.266;14.188;2023-04-27T02:54:30;97891.63;;;7.81;61.32
68476;BME280;55464;48.266;14.188;2023-04-27T02:56:55;97876.28;;;7.80;61.26
68476;BME280;55464;48.266;14.188;2023-04-27T02:59:21;97892.44;;;7.81;61.19
68476;BME280;55464;48.266;14.188;2023-04-27T03:01:46;97886.16;;;7.81;61.34
68476;BME280;55464;48.266;14.188;2023-04-27T03:04:12;97875.50;;;7.79;60.77
68476;BME280;55464;48.266;14.188;2023-04-27T03:06:41;97889.38;;;7.83;61.09
68476;BME280;55464;48.266;14.188;2023-04-27T03:09:06;97885.16;;;7.85;61.05
68476;BME280;55464;48.266;14.188;2023-04-27T03:11:34;97882.41;;;7.85;60.61
68476;BME280;55464;48.266;14.188;2023-04-27T03:14:00;97880.19;;;7.87;60.67
68476;BME280;55464;48.266;14.188;2023-04-27T03:16:25;97881.47;;;7.90;60.48
68476;BME280;55464;48.266;14.188;2023-04-27T03:18:51;97885.34;;;7.89;60.36
68476;BME280;55464;48.266;14.188;2023-04-27T03:21:16;97880.34;;;7.91;60.31
68476;BME280;55464;48.266;14.188;2023-04-27T03:23:42;97882.25;;;7.90;60.19
68476;BME280;55464;48.266;14.188;2023-04-27T03:26:09;97884.53;;;7.88;60.04
68476;BME280;55464;48.266;14.188;2023-04-27T03:28:35;97887.25;;;7.88;60.25
68476;BME280;55464;48.266;14.188;2023-04-27T03:31:11;97886.47;;;7.88;60.20
68476;BME280;55464;48.266;14.188;2023-04-27T03:33:37;97886.47;;;7.88;60.20
68476;BME280;55464;48.266;14.188;2023-04-27T03:36:04;97891.97;;;7.88;60.16
68476;BME280;55464;48.266;14.188;2023-04-27T03:38:31;97891.63;;;7.89;60.14
68476;BME280;55464;48.266;14.188;2023-04-27T03:40:57;97889.53;;;7.86;60.42
68476;BME280;55464;48.266;14.188;2023-04-27T03:43:23;97892.13;;;7.83;60.01
68476;BME280;55464;48.266;14.188;2023-04-27T03:45:48;97900.34;;;7.83;60.75
68476;BME280;55464;48.266;14.188;2023-04-27T03:48:14;97902.47;;;7.77;61.37
68476;BME280;55464;48.266;14.188;2023-04-27T03:50:44;97891.00;;;7.66;61.42
68476;BME280;55464;48.266;14.188;2023-04-27T03:53:10;97906.16;;;7.72;62.11
68476;BME280;55464;48.266;14.188;2023-04-27T03:55:37;97896.66;;;7.70;62.38
68476;BME280;55464;48.266;14.188;2023-04-27T03:58:03;97898.41;;;7.66;61.87
68476;BME280;55464;48.266;14.188;2023-04-27T04:00:28;97893.25;;;7.55;62.38
68476;BME280;55464;48.266;14.188;2023-04-27T04:02:54;97916.66;;;7.62;62.60
68476;BME280;55464;48.266;14.188;2023-04-27T04:05:19;97921.34;;;7.61;62.80
68476;BME280;55464;48.266;14.188;2023-04-27T04:07:45;97914.72;;;7.62;62.94
68476;BME280;55464;48.266;14.188;2023-04-27T04:10:10;97921.97;;;7.58;63.41
68476;BME280;55464;48.266;14.188;2023-04-27T04:12:36;97917.13;;;7.55;63.95
68476;BME280;55464;48.266;14.188;2023-04-27T04:15:02;97922.13;;;7.53;64.51
68476;BME280;55464;48.266;14.188;2023-04-27T04:17:28;97921.00;;;7.54;64.85
68476;BME280;55464;48.266;14.188;2023-04-27T04:19:53;97919.69;;;7.51;64.97
68476;BME280;55464;48.266;14.188;2023-04-27T04:22:18;97916.78;;;7.48;65.29
68476;BME280;55464;48.266;14.188;2023-04-27T04:24:44;97915.16;;;7.47;65.60
68476;BME280;55464;48.266;14.188;2023-04-27T04:27:10;97925.81;;;7.48;65.22
68476;BME280;55464;48.266;14.188;2023-04-27T04:29:35;97924.22;;;7.47;65.46
68476;BME280;55464;48.266;14.188;2023-04-27T04:32:00;97930.34;;;7.53;65.37
68476;BME280;55464;48.266;14.188;2023-04-27T04:34:26;97935.53;;;7.54;65.09
68476;BME280;55464;48.266;14.188;2023-04-27T04:36:53;97933.41;;;7.51;65.74
68476;BME280;55464;48.266;14.188;2023-04-27T04:39:21;97941.66;;;7.51;65.15
68476;BME280;55464;48.266;14.188;2023-04-27T04:41:47;97935.03;;;7.52;66.10
68476;BME280;55464;48.266;14.188;2023-04-27T04:44:15;97938.09;;;7.51;66.53
68476;BME280;55464;48.266;14.188;2023-04-27T04:46:41;97945.69;;;7.54;66.45
68476;BME280;55464;48.266;14.188;2023-04-27T04:49:07;97946.00;;;7.52;67.09
68476;BME280;55464;48.266;14.188;2023-04-27T04:51:33;97950.34;;;7.53;66.73
68476;BME280;55464;48.266;14.188;2023-04-27T04:53:59;97950.03;;;7.55;66.10
68476;BME280;55464;48.266;14.188;2023-04-27T04:56:24;97945.88;;;7.57;65.60
68476;BME280;55464;48.266;14.188;2023-04-27T04:58:50;97950.53;;;7.57;65.89
68476;BME280;55464;48.266;14.188;2023-04-27T05:01:15;97954.25;;;7.61;66.07
68476;BME280;55464;48.266;14.188;2023-04-27T05:03:41;97961.03;;;7.64;65.42
68476;BME280;55464;48.266;14.188;2023-04-27T05:06:06;97947.94;;;7.61;65.55
68476;BME280;55464;48.266;14.188;2023-04-27T05:08:32;97952.47;;;7.56;66.13
68476;BME280;55464;48.266;14.188;2023-04-27T05:10:57;97959.75;;;7.61;66.39
68476;BME280;55464;48.266;14.188;2023-04-27T05:13:22;97961.19;;;7.58;67.17
68476;BME280;55464;48.266;14.188;2023-04-27T05:15:51;97959.56;;;7.57;67.30
68476;BME280;55464;48.266;14.188;2023-04-27T05:18:17;97961.19;;;7.58;67.48
68476;BME280;55464;48.266;14.188;2023-04-27T05:20:42;97972.97;;;7.59;67.77
68476;BME280;55464;48.266;14.188;2023-04-27T05:23:08;97979.44;;;7.63;67.73
68476;BME280;55464;48.266;14.188;2023-04-27T05:25:34;97980.53;;;7.62;67.98
68476;BME280;55464;48.266;14.188;2023-04-27T05:28:06;97987.34;;;7.65;68.24
68476;BME280;55464;48.266;14.188;2023-04-27T05:30:32;97977.78;;;7.62;68.25
68476;BME280;55464;48.266;14.188;2023-04-27T05:32:57;97992.34;;;7.63;67.85
68476;BME280;55464;48.266;14.188;2023-04-27T05:35:23;97981.69;;;7.61;67.64
68476;BME280;55464;48.266;14.188;2023-04-27T05:37:48;97983.94;;;7.59;68.23
68476;BME280;55464;48.266;14.188;2023-04-27T05:40:14;97988.59;;;7.58;69.09
68476;BME280;55464;48.266;14.188;2023-04-27T05:42:39;97987.00;;;7.57;69.55
68476;BME280;55464;48.266;14.188;2023-04-27T05:45:05;97991.81;;;7.61;68.87
68476;BME280;55464;48.266;14.188;2023-04-27T05:47:31;97991.50;;;7.62;68.42
68476;BME280;55464;48.266;14.188;2023-04-27T05:49:56;97992.81;;;7.65;67.52
68476;BME280;55464;48.266;14.188;2023-04-27T05:52:22;97996.53;;;7.69;66.79
68476;BME280;55464;48.266;14.188;2023-04-27T05:54:53;97983.44;;;7.66;66.39
68476;BME280;55464;48.266;14.188;2023-04-27T05:57:19;97988.13;;;7.65;66.72
68476;BME280;55464;48.266;14.188;2023-04-27T05:59:44;97993.31;;;7.67;67.18
68476;BME280;55464;48.266;14.188;2023-04-27T06:02:09;97998.00;;;7.66;68.35
68476;BME280;55464;48.266;14.188;2023-04-27T06:04:35;98004.75;;;7.69;68.59
68476;BME280;55464;48.266;14.188;2023-04-27T06:07:06;97992.34;;;7.71;68.67
68476;BME280;55464;48.266;14.188;2023-04-27T06:09:31;97999.28;;;7.78;68.14
68476;BME280;55464;48.266;14.188;2023-04-27T06:11:57;97996.22;;;7.79;67.04
68476;BME280;55464;48.266;14.188;2023-04-27T06:14:26;97986.53;;;7.73;66.91
68476;BME280;55464;48.266;14.188;2023-04-27T06:16:51;97999.13;;;7.83;68.00
68476;BME280;55464;48.266;14.188;2023-04-27T06:19:16;97999.28;;;7.78;68.18
68476;BME280;55464;48.266;14.188;2023-04-27T06:21:42;97999.31;;;7.86;67.93
68476;BME280;55464;48.266;14.188;2023-04-27T06:24:07;97991.53;;;7.88;67.86
68476;BME280;55464;48.266;14.188;2023-04-27T06:26:33;97999.00;;;7.97;66.55
68476;BME280;55464;48.266;14.188;2023-04-27T06:28:58;97996.09;;;8.02;66.42
68476;BME280;55464;48.266;14.188;2023-04-27T06:31:25;98007.22;;;8.05;65.09
68476;BME280;55464;48.266;14.188;2023-04-27T06:33:50;98008.19;;;8.09;63.63
68476;BME280;55464;48.266;14.188;2023-04-27T06:36:16;98012.56;;;8.10;62.93
68476;BME280;55464;48.266;14.188;2023-04-27T06:38:42;98013.69;;;8.18;62.54
68476;BME280;55464;48.266;14.188;2023-04-27T06:41:07;98008.03;;;8.23;62.73
68476;BME280;55464;48.266;14.188;2023-04-27T06:43:35;98005.28;;;8.23;61.79
68476;BME280;55464;48.266;14.188;2023-04-27T06:46:00;98007.88;;;8.28;61.92
68476;BME280;55464;48.266;14.188;2023-04-27T06:48:26;98012.25;;;8.29;61.08
68476;BME280;55464;48.266;14.188;2023-04-27T06:50:52;98016.59;;;8.39;61.50
68476;BME280;55464;48.266;14.188;2023-04-27T06:53:17;98011.28;;;8.43;61.38
68476;BME280;55464;48.266;14.188;2023-04-27T06:55:43;98016.59;;;8.48;60.53
68476;BME280;55464;48.266;14.188;2023-04-27T06:58:08;97994.00;;;8.42;58.84
68476;BME280;55464;48.266;14.188;2023-04-27T07:00:34;98010.47;;;8.51;57.66
68476;BME280;55464;48.266;14.188;2023-04-27T07:02:59;98009.81;;;8.54;56.88
68476;BME280;55464;48.266;14.188;2023-04-27T07:05:25;97999.94;;;8.53;56.75
68476;BME280;55464;48.266;14.188;2023-04-27T07:07:51;98014.00;;;8.60;57.92
68476;BME280;55464;48.266;14.188;2023-04-27T07:10:16;98018.22;;;8.66;59.01
68476;BME280;55464;48.266;14.188;2023-04-27T07:12:42;98014.78;;;8.69;58.59
68476;BME280;55464;48.266;14.188;2023-04-27T07:15:08;98013.66;;;8.70;58.91
68476;BME280;55464;48.266;14.188;2023-04-27T07:17:34;98011.22;;;8.69;58.29
68476;BME280;55464;48.266;14.188;2023-04-27T07:20:03;98012.69;;;8.75;59.78
68476;BME280;55464;48.266;14.188;2023-04-27T07:22:30;97999.59;;;8.72;58.63
68476;BME280;55464;48.266;14.188;2023-04-27T07:24:55;98014.75;;;8.87;57.98
68476;BME280;55464;48.266;14.188;2023-04-27T07:27:21;98010.72;;;8.84;56.60
68476;BME280;55464;48.266;14.188;2023-04-27T07:29:46;98010.41;;;8.86;56.88
68476;BME280;55464;48.266;14.188;2023-04-27T07:32:12;98025.25;;;8.94;57.26
68476;BME280;55464;48.266;14.188;2023-04-27T07:34:37;98012.97;;;8.91;56.19
68476;BME280;55464;48.266;14.188;2023-04-27T07:37:03;98022.00;;;9.00;57.20
68476;BME280;55464;48.266;14.188;2023-04-27T07:39:29;98013.91;;;8.95;57.64
68476;BME280;55464;48.266;14.188;2023-04-27T07:41:55;98022.47;;;9.02;56.50
68476;BME280;55464;48.266;14.188;2023-04-27T07:44:20;98019.88;;;9.06;56.45
68476;BME280;55464;48.266;14.188;2023-04-27T07:46:46;98023.28;;;9.03;57.00
68476;BME280;55464;48.266;14.188;2023-04-27T07:49:15;98027.00;;;9.07;56.40
68476;BME280;55464;48.266;14.188;2023-04-27T07:51:41;98035.22;;;9.16;56.94
68476;BME280;55464;48.266;14.188;2023-04-27T07:54:07;98033.41;;;9.20;56.79
68476;BME280;55464;48.266;14.188;2023-04-27T07:56:33;98029.19;;;9.22;57.26
68476;BME280;55464;48.266;14.188;2023-04-27T07:58:58;98033.22;;;9.25;57.05
68476;BME280;55464;48.266;14.188;2023-04-27T08:01:23;98032.72;;;9.32;57.88
68476;BME280;55464;48.266;14.188;2023-04-27T08:03:49;98031.22;;;9.34;57.88
68476;BME280;55464;48.266;14.188;2023-04-27T08:06:15;98020.22;;;9.34;56.86
68476;BME280;55464;48.266;14.188;2023-04-27T08:08:40;98033.16;;;9.42;57.25
68476;BME280;55464;48.266;14.188;2023-04-27T08:11:10;98036.03;;;9.46;57.61
68476;BME280;55464;48.266;14.188;2023-04-27T08:13:35;98029.28;;;9.43;56.79
68476;BME280;55464;48.266;14.188;2023-04-27T08:16:01;98038.00;;;9.45;57.01
68476;BME280;55464;48.266;14.188;2023-04-27T08:18:26;98046.06;;;9.51;56.27
68476;BME280;55464;48.266;14.188;2023-04-27T08:20:52;98046.06;;;9.51;56.66
68476;BME280;55464;48.266;14.188;2023-04-27T08:23:18;98047.81;;;9.55;56.01
68476;BME280;55464;48.266;14.188;2023-04-27T08:25:43;98049.28;;;9.53;54.12
68476;BME280;55464;48.266;14.188;2023-04-27T08:28:09;98051.53;;;9.59;56.37
68476;BME280;55464;48.266;14.188;2023-04-27T08:30:34;98051.19;;;9.61;56.88
68476;BME280;55464;48.266;14.188;2023-04-27T08:33:00;98044.22;;;9.63;57.24
68476;BME280;55464;48.266;14.188;2023-04-27T08:35:25;98048.72;;;9.68;57.93
68476;BME280;55464;48.266;14.188;2023-04-27T08:37:51;98048.53;;;9.73;57.58
68476;BME280;55464;48.266;14.188;2023-04-27T08:40:18;98045.94;;;9.77;56.89
68476;BME280;55464;48.266;14.188;2023-04-27T08:42:55;98036.66;;;9.81;57.11
68476;BME280;55464;48.266;14.188;2023-04-27T08:45:22;98037.16;;;9.83;56.95
68476;BME280;55464;48.266;14.188;2023-04-27T08:47:48;98037.47;;;9.82;55.92
68476;BME280;55464;48.266;14.188;2023-04-27T08:50:14;98034.03;;;9.85;55.27
68476;BME280;55464;48.266;14.188;2023-04-27T08:52:43;98039.84;;;9.92;57.05
68476;BME280;55464;48.266;14.188;2023-04-27T08:55:09;98041.59;;;9.97;58.62
68476;BME280;55464;48.266;14.188;2023-04-27T08:57:34;98031.59;;;9.92;58.64
68476;BME280;55464;48.266;14.188;2023-04-27T08:59:59;98037.84;;;10.01;58.54
68476;BME280;55464;48.266;14.188;2023-04-27T09:02:25;98046.69;;;10.07;57.83
68476;BME280;55464;48.266;14.188;2023-04-27T09:04:54;98037.44;;;10.12;58.79
68476;BME280;55464;48.266;14.188;2023-04-27T09:07:20;98030.19;;;10.07;57.59
68476;BME280;55464;48.266;14.188;2023-04-27T09:09:46;98038.84;;;10.18;57.11
68476;BME280;55464;48.266;14.188;2023-04-27T09:12:18;98043.03;;;10.24;59.62
68476;BME280;55464;48.266;14.188;2023-04-27T09:14:58;98025.81;;;10.27;58.82
68476;BME280;55464;48.266;14.188;2023-04-27T09:17:26;98034.03;;;10.36;59.59
68476;BME280;55464;48.266;14.188;2023-04-27T09:20:03;98030.59;;;10.39;57.26
68476;BME280;55464;48.266;14.188;2023-04-27T09:22:40;98028.38;;;10.32;54.69
68476;BME280;55464;48.266;14.188;2023-04-27T09:25:06;98024.03;;;10.31;54.61
68476;BME280;55464;48.266;14.188;2023-04-27T09:27:32;98019.00;;;10.33;54.44
68476;BME280;55464;48.266;14.188;2023-04-27T09:29:57;98021.22;;;10.40;54.61
68476;BME280;55464;48.266;14.188;2023-04-27T09:32:22;98022.81;;;10.41;54.57
68476;BME280;55464;48.266;14.188;2023-04-27T09:34:48;98019.91;;;10.37;53.49
68476;BME280;55464;48.266;14.188;2023-04-27T09:37:14;98017.84;;;10.34;52.81
68476;BME280;55464;48.266;14.188;2023-04-27T09:39:40;98022.81;;;10.41;52.65
68476;BME280;55464;48.266;14.188;2023-04-27T09:42:06;98022.94;;;10.45;52.75
68476;BME280;55464;48.266;14.188;2023-04-27T09:44:32;98017.22;;;10.50;51.80
68476;BME280;55464;48.266;14.188;2023-04-27T09:46:59;98003.69;;;10.57;53.40
68476;BME280;55464;48.266;14.188;2023-04-27T09:49:26;98005.91;;;10.64;54.03
68476;BME280;55464;48.266;14.188;2023-04-27T09:51:54;98009.84;;;10.75;51.60
68476;BME280;55464;48.266;14.188;2023-04-27T09:54:24;98002.84;;;10.77;50.33
68476;BME280;55464;48.266;14.188;2023-04-27T10:00:02;98007.91;;;10.75;53.30
68476;BME280;55464;48.266;14.188;2023-04-27T10:02:52;98005.25;;;10.79;53.19
68476;BME280;55464;48.266;14.188;2023-04-27T10:07:58;97996.31;;;10.82;52.39
68476;BME280;55464;48.266;14.188;2023-04-27T10:10:24;97988.75;;;10.91;50.60
68476;BME280;55464;48.266;14.188;2023-04-27T10:13:02;98000.38;;;11.09;48.30
68476;BME280;55464;48.266;14.188;2023-04-27T10:15:28;97995.56;;;11.06;47.76
68476;BME280;55464;48.266;14.188;2023-04-27T10:17:54;97991.75;;;10.98;47.94
68476;BME280;55464;48.266;14.188;2023-04-27T10:20:35;98003.72;;;11.03;48.06
68476;BME280;55464;48.266;14.188;2023-04-27T10:23:01;97993.16;;;11.05;48.35
68476;BME280;55464;48.266;14.188;2023-04-27T10:25:36;98000.25;;;11.06;49.01
68476;BME280;55464;48.266;14.188;2023-04-27T10:28:02;98002.00;;;11.10;47.59
68476;BME280;55464;48.266;14.188;2023-04-27T10:30:36;97992.94;;;11.10;46.39
68476;BME280;55464;48.266;14.188;2023-04-27T10:33:05;97994.53;;;11.11;46.91
68476;BME280;55464;48.266;14.188;2023-04-27T10:35:39;97992.44;;;11.08;48.08
68476;BME280;55464;48.266;14.188;2023-04-27T10:38:16;97990.84;;;11.07;48.36
68476;BME280;55464;48.266;14.188;2023-04-27T10:40:44;97987.84;;;11.00;48.46
68476;BME280;55464;48.266;14.188;2023-04-27T10:43:13;97990.59;;;11.00;48.65
68476;BME280;55464;48.266;14.188;2023-04-27T10:45:41;97987.97;;;11.03;48.51
68476;BME280;55464;48.266;14.188;2023-04-27T10:48:07;97978.19;;;11.06;49.48
68476;BME280;55464;48.266;14.188;2023-04-27T10:50:33;97988.31;;;11.14;47.62
68476;BME280;55464;48.266;14.188;2023-04-27T10:53:01;97984.53;;;11.19;45.72
68476;BME280;55464;48.266;14.188;2023-04-27T10:55:28;97977.53;;;11.21;47.86
68476;BME280;55464;48.266;14.188;2023-04-27T10:57:55;97965.13;;;11.27;48.41
68476;BME280;55464;48.266;14.188;2023-04-27T11:03:13;97962.34;;;11.52;49.23
68476;BME280;55464;48.266;14.188;2023-04-27T11:05:41;97962.22;;;11.61;54.23
68476;BME280;55464;48.266;14.188;2023-04-27T11:08:09;97957.81;;;11.84;53.27
68476;BME280;55464;48.266;14.188;2023-04-27T11:10:38;97963.28;;;12.09;46.50
68476;BME280;55464;48.266;14.188;2023-04-27T11:13:08;97963.44;;;12.00;46.81
68476;BME280;55464;48.266;14.188;2023-04-27T11:18:10;97959.66;;;11.93;45.62
68476;BME280;55464;48.266;14.188;2023-04-27T11:20:35;97966.66;;;11.90;46.64
68476;BME280;55464;48.266;14.188;2023-04-27T11:23:01;97946.88;;;11.88;50.54
68476;BME280;55464;48.266;14.188;2023-04-27T11:25:27;97955.50;;;11.99;48.97
68476;BME280;55464;48.266;14.188;2023-04-27T11:27:53;97950.41;;;12.01;46.40
68476;BME280;55464;48.266;14.188;2023-04-27T11:30:20;97961.31;;;12.09;46.94
68476;BME280;55464;48.266;14.188;2023-04-27T11:32:46;97965.75;;;12.26;45.12
68476;BME280;55464;48.266;14.188;2023-04-27T11:35:12;97956.03;;;12.17;44.74
68476;BME280;55464;48.266;14.188;2023-04-27T11:37:38;97954.72;;;12.26;46.10
68476;BME280;55464;48.266;14.188;2023-04-27T11:40:04;97958.75;;;12.29;45.07
68476;BME280;55464;48.266;14.188;2023-04-27T11:42:29;97951.34;;;12.33;46.79
68476;BME280;55464;48.266;14.188;2023-04-27T11:45:00;97945.22;;;12.40;44.69
68476;BME280;55464;48.266;14.188;2023-04-27T11:47:30;97950.94;;;12.47;45.34
68476;BME280;55464;48.266;14.188;2023-04-27T11:50:01;97953.00;;;12.50;45.98
68476;BME280;55464;48.266;14.188;2023-04-27T11:52:36;97944.34;;;12.52;45.74
68476;BME280;55464;48.266;14.188;2023-04-27T11:55:03;97960.69;;;12.73;44.70
68476;BME280;55464;48.266;14.188;2023-04-27T11:57:31;97951.78;;;12.63;44.75
68476;BME280;55464;48.266;14.188;2023-04-27T11:59:58;97953.75;;;12.79;44.82
68476;BME280;55464;48.266;14.188;2023-04-27T12:02:26;97948.22;;;12.79;45.14
68476;BME280;55464;48.266;14.188;2023-04-27T12:04:51;97945.72;;;12.74;45.66
68476;BME280;55464;48.266;14.188;2023-04-27T12:07:17;97957.75;;;12.81;44.05
68476;BME280;55464;48.266;14.188;2023-04-27T12:09:43;97951.34;;;12.77;45.52
68476;BME280;55464;48.266;14.188;2023-04-27T12:12:09;97962.06;;;12.79;45.48
68476;BME280;55464;48.266;14.188;2023-04-27T12:14:35;97951.97;;;12.86;44.06
68476;BME280;55464;48.266;14.188;2023-04-27T12:17:00;97950.91;;;12.75;46.27
68476;BME280;55464;48.266;14.188;2023-04-27T12:19:26;97942.50;;;12.72;46.47
68476;BME280;55464;48.266;14.188;2023-04-27T12:21:51;97951.88;;;12.83;44.92
68476;BME280;55464;48.266;14.188;2023-04-27T12:24:17;97953.94;;;12.86;47.22
68476;BME280;55464;48.266;14.188;2023-04-27T12:26:43;97942.00;;;12.98;47.22
68476;BME280;55464;48.266;14.188;2023-04-27T12:29:08;97947.97;;;13.16;45.77
68476;BME280;55464;48.266;14.188;2023-04-27T12:31:34;97952.44;;;13.20;45.56
68476;BME280;55464;48.266;14.188;2023-04-27T12:34:00;97959.56;;;13.21;45.54
68476;BME280;55464;48.266;14.188;2023-04-27T12:36:25;97953.16;;;13.17;46.02
68476;BME280;55464;48.266;14.188;2023-04-27T12:38:52;97947.72;;;13.21;44.07
68476;BME280;55464;48.266;14.188;2023-04-27T12:41:18;97947.19;;;13.15;47.29
68476;BME280;55464;48.266;14.188;2023-04-27T12:43:43;97953.59;;;13.19;48.21
68476;BME280;55464;48.266;14.188;2023-04-27T12:46:10;97947.28;;;13.35;46.03
68476;BME280;55464;48.266;14.188;2023-04-27T12:48:35;97952.63;;;13.43;44.84
68476;BME280;55464;48.266;14.188;2023-04-27T12:51:01;97949.22;;;13.50;44.81
68476;BME280;55464;48.266;14.188;2023-04-27T12:53:27;97942.41;;;13.64;45.48
68476;BME280;55464;48.266;14.188;2023-04-27T12:55:52;97947.47;;;13.77;45.17
68476;BME280;55464;48.266;14.188;2023-04-27T12:58:18;97939.16;;;13.97;44.39
68476;BME280;55464;48.266;14.188;2023-04-27T13:00:44;97945.47;;;14.13;43.15
68476;BME280;55464;48.266;14.188;2023-04-27T13:03:09;97935.19;;;14.14;42.63
68476;BME280;55464;48.266;14.188;2023-04-27T13:05:35;97943.72;;;14.25;42.72